sensor_id;sensor_type;location;lat;lon;timestamp;temperature;humidity
19279;DHT22;9773;47.062;15.446;2023-07-20T00:01:15;22.60;99.90
19279;DHT22;9773;47.062;15.446;2023-07-20T00:03:41;22.60;99.90
19279;DHT22;9773;47.062;15.446;2023-07-20T00:06:07;22.60;99.90
19279;DHT22;9773;47.062;15.446;2023-07-20T00:08:33;22.60;99.90
19279;DHT22;9773;47.062;15.446;2023-07-20T00:10:59;22.50;99.90
19279;DHT22;9773;47.062;15.446;2023-07-20T00:13:25;22.40;99.90
19279;DHT22;9773;47.062;15.446;2023-07-20T00:15:51;22.40;99.90
19279;DHT22;9773;47.062;15.446;2023-07-20T00:18:17;22.40;99.90
19279;DHT22;9773;47.062;15.446;2023-07-20T00:20:43;22.30;99.90
19279;DHT22;9773;47.062;15.446;2023-07-20T00:23:08;22.30;99.90
19279;DHT22;9773;47.062;15.446;2023-07-20T00:25:34;22.30;99.90
19279;DHT22;9773;47.062;15.446;2023-07-20T00:28:01;22.20;99.90
19279;DHT22;9773;47.062;15.446;2023-07-20T00:30:27;22.10;99.90
19279;DHT22;9773;47.062;15.446;2023-07-20T00:32:52;22.10;99.90
19279;DHT22;9773;47.062;15.446;2023-07-20T00:35:18;22.10;99.90
19279;DHT22;9773;47.062;15.446;2023-07-20T00:37:44;22.00;99.90
19279;DHT22;9773;47.062;15.446;2023-07-20T00:40:10;22.00;99.90
19279;DHT22;9773;47.062;15.446;2023-07-20T00:42:36;21.90;99.90
19279;DHT22;9773;47.062;15.446;2023-07-20T00:45:01;21.90;99.90
19279;DHT22;9773;47.062;15.446;2023-07-20T00:47:27;21.90;99.90
19279;DHT22;9773;47.062;15.446;2023-07-20T00:49:54;21.90;99.90
19279;DHT22;9773;47.062;15.446;2023-07-20T00:52:23;21.80;99.90
19279;DHT22;9773;47.062;15.446;2023-07-20T00:54:51;21.80;99.90
19279;DHT22;9773;47.062;15.446;2023-07-20T00:57:19;21.80;99.90
19279;DHT22;9773;47.062;15.446;2023-07-20T00:59:45;21.90;99.90
19279;DHT22;9773;47.062;15.446;2023-07-20T01:02:10;21.80;99.90
19279;DHT22;9773;47.062;15.446;2023-07-20T01:04:36;21.80;99.90
19279;DHT22;9773;47.062;15.446;2023-07-20T01:10:31;21.80;99.90
19279;DHT22;9773;47.062;15.446;2023-07-20T01:13:00;21.80;99.90
19279;DHT22;9773;47.062;15.446;2023-07-20T01:15:27;21.80;99.90
19279;DHT22;9773;47.062;15.446;2023-07-20T01:17:53;21.90;99.90
19279;DHT22;9773;47.062;15.446;2023-07-20T01:20:20;21.90;99.90
19279;DHT22;9773;47.062;15.446;2023-07-20T01:31:25;21.80;99.90
19279;DHT22;9773;47.062;15.446;2023-07-20T01:33:56;21.80;99.90
19279;DHT22;9773;47.062;15.446;2023-07-20T01:36:24;21.80;99.90
19279;DHT22;9773;47.062;15.446;2023-07-20T01:38:52;21.80;99.90
19279;DHT22;9773;47.062;15.446;2023-07-20T01:41:20;21.80;99.90
19279;DHT22;9773;47.062;15.446;2023-07-20T01:43:46;21.80;99.90
19279;DHT22;9773;47.062;15.446;2023-07-20T01:46:12;21.80;99.90
19279;DHT22;9773;47.062;15.446;2023-07-20T01:48:38;21.90;99.90
19279;DHT22;9773;47.062;15.446;2023-07-20T01:51:08;21.90;99.90
19279;DHT22;9773;47.062;15.446;2023-07-20T01:53:34;21.90;99.90
19279;DHT22;9773;47.062;15.446;2023-07-20T01:55:59;21.90;99.90
19279;DHT22;9773;47.062;15.446;2023-07-20T01:58:25;21.90;99.90
19279;DHT22;9773;47.062;15.446;2023-07-20T02:00:51;21.80;99.90
19279;DHT22;9773;47.062;15.446;2023-07-20T02:03:16;21.80;99.90
19279;DHT22;9773;47.062;15.446;2023-07-20T02:05:43;21.80;99.90
19279;DHT22;9773;47.062;15.446;2023-07-20T02:08:09;21.70;99.90
19279;DHT22;9773;47.062;15.446;2023-07-20T02:10:35;21.70;99.90
19279;DHT22;9773;47.062;15.446;2023-07-20T02:13:01;21.60;99.90
19279;DHT22;9773;47.062;15.446;2023-07-20T02:15:26;21.60;99.90
19279;DHT22;9773;47.062;15.446;2023-07-20T02:17:53;21.50;99.90
19279;DHT22;9773;47.062;15.446;2023-07-20T02:20:19;21.50;99.90
19279;DHT22;9773;47.062;15.446;2023-07-20T02:22:45;21.60;99.90
19279;DHT22;9773;47.062;15.446;2023-07-20T02:25:11;21.60;99.90
19279;DHT22;9773;47.062;15.446;2023-07-20T02:27:37;21.60;99.90
19279;DHT22;9773;47.062;15.446;2023-07-20T02:30:04;21.70;99.90
19279;DHT22;9773;47.062;15.446;2023-07-20T02:32:30;21.60;99.90
19279;DHT22;9773;47.062;15.446;2023-07-20T02:34:57;21.60;99.90
19279;DHT22;9773;47.062;15.446;2023-07-20T02:37:24;21.60;99.90
19279;DHT22;9773;47.062;15.446;2023-07-20T02:39:50;21.50;99.90
19279;DHT22;9773;47.062;15.446;2023-07-20T02:42:16;21.60;99.90
19279;DHT22;9773;47.062;15.446;2023-07-20T02:44:41;21.60;99.90
19279;DHT22;9773;47.062;15.446;2023-07-20T02:47:07;21.60;99.90
19279;DHT22;9773;47.062;15.446;2023-07-20T02:49:33;21.70;99.90
19279;DHT22;9773;47.062;15.446;2023-07-20T02:51:59;21.70;99.90
19279;DHT22;9773;47.062;15.446;2023-07-20T02:54:24;21.80;99.90
19279;DHT22;9773;47.062;15.446;2023-07-20T02:56:50;21.80;99.90
19279;DHT22;9773;47.062;15.446;2023-07-20T02:59:16;21.70;99.90
19279;DHT22;9773;47.062;15.446;2023-07-20T03:01:41;21.70;99.90
19279;DHT22;9773;47.062;15.446;2023-07-20T03:04:10;21.70;99.90
19279;DHT22;9773;47.062;15.446;2023-07-20T03:06:36;21.70;99.90
19279;DHT22;9773;47.062;15.446;2023-07-20T03:09:04;21.60;99.90
19279;DHT22;9773;47.062;15.446;2023-07-20T03:11:31;21.70;99.90
19279;DHT22;9773;47.062;15.446;2023-07-20T03:13:57;21.60;99.90
19279;DHT22;9773;47.062;15.446;2023-07-20T03:16:25;21.70;99.90
19279;DHT22;9773;47.062;15.446;2023-07-20T03:18:50;21.70;99.90
19279;DHT22;9773;47.062;15.446;2023-07-20T03:21:16;21.60;99.90
19279;DHT22;9773;47.062;15.446;2023-07-20T03:23:42;21.60;99.90
19279;DHT22;9773;47.062;15.446;2023-07-20T03:26:08;21.60;99.90
19279;DHT22;9773;47.062;15.446;2023-07-20T03:28:37;21.60;99.90
19279;DHT22;9773;47.062;15.446;2023-07-20T03:31:04;21.70;99.90
19279;DHT22;9773;47.062;15.446;2023-07-20T03:33:30;21.70;99.90
19279;DHT22;9773;47.062;15.446;2023-07-20T03:35:57;21.70;99.90
19279;DHT22;9773;47.062;15.446;2023-07-20T03:38:23;21.70;99.90
19279;DHT22;9773;47.062;15.446;2023-07-20T03:40:54;21.70;99.90
19279;DHT22;9773;47.062;15.446;2023-07-20T03:43:20;21.70;99.90
19279;DHT22;9773;47.062;15.446;2023-07-20T03:45:47;21.70;99.90
19279;DHT22;9773;47.062;15.446;2023-07-20T03:48:17;21.70;99.90
19279;DHT22;9773;47.062;15.446;2023-07-20T03:50:47;21.70;99.90
19279;DHT22;9773;47.062;15.446;2023-07-20T03:53:14;21.70;99.90
19279;DHT22;9773;47.062;15.446;2023-07-20T03:55:41;21.80;99.90
19279;DHT22;9773;47.062;15.446;2023-07-20T03:58:08;21.80;99.90
19279;DHT22;9773;47.062;15.446;2023-07-20T04:00:34;21.90;99.90
19279;DHT22;9773;47.062;15.446;2023-07-20T04:03:00;21.90;99.90
19279;DHT22;9773;47.062;15.446;2023-07-20T04:05:26;21.90;99.90
19279;DHT22;9773;47.062;15.446;2023-07-20T04:07:52;22.00;99.90
19279;DHT22;9773;47.062;15.446;2023-07-20T04:10:18;22.00;99.90
19279;DHT22;9773;47.062;15.446;2023-07-20T04:12:45;22.00;99.90
19279;DHT22;9773;47.062;15.446;2023-07-20T04:15:13;22.00;99.90
19279;DHT22;9773;47.062;15.446;2023-07-20T04:17:39;21.90;99.90
19279;DHT22;9773;47.062;15.446;2023-07-20T04:20:06;21.90;99.90
19279;DHT22;9773;47.062;15.446;2023-07-20T04:22:32;21.80;99.90
19279;DHT22;9773;47.062;15.446;2023-07-20T04:24:58;21.90;99.90
19279;DHT22;9773;47.062;15.446;2023-07-20T04:27:24;21.90;99.90
19279;DHT22;9773;47.062;15.446;2023-07-20T04:29:49;21.90;99.90
19279;DHT22;9773;47.062;15.446;2023-07-20T04:32:15;21.90;99.90
19279;DHT22;9773;47.062;15.446;2023-07-20T04:34:41;21.90;99.90
19279;DHT22;9773;47.062;15.446;2023-07-20T04:37:07;21.80;99.90
19279;DHT22;9773;47.062;15.446;2023-07-20T04:39:33;21.80;99.90
19279;DHT22;9773;47.062;15.446;2023-07-20T04:41:59;21.80;99.90
19279;DHT22;9773;47.062;15.446;2023-07-20T04:44:24;21.80;99.90
19279;DHT22;9773;47.062;15.446;2023-07-20T04:46:50;21.80;99.90
19279;DHT22;9773;47.062;15.446;2023-07-20T04:49:16;21.70;99.90
19279;DHT22;9773;47.062;15.446;2023-07-20T04:51:41;21.70;99.90
19279;DHT22;9773;47.062;15.446;2023-07-20T04:54:08;21.60;99.90
19279;DHT22;9773;47.062;15.446;2023-07-20T04:56:34;21.60;99.90
19279;DHT22;9773;47.062;15.446;2023-07-20T04:59:00;21.60;99.90
19279;DHT22;9773;47.062;15.446;2023-07-20T05:01:26;21.70;99.90
19279;DHT22;9773;47.062;15.446;2023-07-20T05:03:54;21.70;99.90
19279;DHT22;9773;47.062;15.446;2023-07-20T05:06:21;21.80;99.90
19279;DHT22;9773;47.062;15.446;2023-07-20T05:08:46;21.80;99.90
19279;DHT22;9773;47.062;15.446;2023-07-20T05:11:12;21.90;99.90
19279;DHT22;9773;47.062;15.446;2023-07-20T05:13:38;21.90;99.90
19279;DHT22;9773;47.062;15.446;2023-07-20T05:16:04;22.00;99.90
19279;DHT22;9773;47.062;15.446;2023-07-20T05:18:30;22.00;99.90
19279;DHT22;9773;47.062;15.446;2023-07-20T05:20:55;22.10;99.90
19279;DHT22;9773;47.062;15.446;2023-07-20T05:23:21;22.10;99.90
19279;DHT22;9773;47.062;15.446;2023-07-20T05:25:57;22.20;99.90
19279;DHT22;9773;47.062;15.446;2023-07-20T05:28:23;22.30;99.90
19279;DHT22;9773;47.062;15.446;2023-07-20T05:30:50;22.30;99.80
19279;DHT22;9773;47.062;15.446;2023-07-20T05:33:18;22.40;99.70
19279;DHT22;9773;47.062;15.446;2023-07-20T05:35:43;22.40;99.90
19279;DHT22;9773;47.062;15.446;2023-07-20T05:38:09;22.40;99.70
19279;DHT22;9773;47.062;15.446;2023-07-20T05:40:40;22.40;99.70
19279;DHT22;9773;47.062;15.446;2023-07-20T05:43:06;22.40;99.80
19279;DHT22;9773;47.062;15.446;2023-07-20T05:45:32;22.40;99.80
19279;DHT22;9773;47.062;15.446;2023-07-20T05:47:57;22.40;99.90
19279;DHT22;9773;47.062;15.446;2023-07-20T05:50:23;22.40;99.90
19279;DHT22;9773;47.062;15.446;2023-07-20T05:52:53;22.50;99.60
19279;DHT22;9773;47.062;15.446;2023-07-20T05:55:19;22.50;99.50
19279;DHT22;9773;47.062;15.446;2023-07-20T05:57:45;22.60;99.40
19279;DHT22;9773;47.062;15.446;2023-07-20T06:00:12;22.70;99.50
19279;DHT22;9773;47.062;15.446;2023-07-20T06:02:39;22.80;99.30
19279;DHT22;9773;47.062;15.446;2023-07-20T06:05:06;22.80;99.30
19279;DHT22;9773;47.062;15.446;2023-07-20T06:07:39;22.90;99.20
19279;DHT22;9773;47.062;15.446;2023-07-20T06:10:06;23.00;99.30
19279;DHT22;9773;47.062;15.446;2023-07-20T06:12:32;23.00;99.20
19279;DHT22;9773;47.062;15.446;2023-07-20T06:15:03;23.10;99.40
19279;DHT22;9773;47.062;15.446;2023-07-20T06:17:30;23.20;99.30
19279;DHT22;9773;47.062;15.446;2023-07-20T06:19:56;23.10;99.60
19279;DHT22;9773;47.062;15.446;2023-07-20T06:22:22;23.10;99.60
19279;DHT22;9773;47.062;15.446;2023-07-20T06:24:48;23.20;99.60
19279;DHT22;9773;47.062;15.446;2023-07-20T06:27:14;23.20;99.40
19279;DHT22;9773;47.062;15.446;2023-07-20T06:29:39;23.30;99.50
19279;DHT22;9773;47.062;15.446;2023-07-20T06:32:05;23.30;99.60
19279;DHT22;9773;47.062;15.446;2023-07-20T06:34:32;23.30;99.70
19279;DHT22;9773;47.062;15.446;2023-07-20T06:37:03;23.30;99.80
19279;DHT22;9773;47.062;15.446;2023-07-20T06:39:29;23.30;99.90
19279;DHT22;9773;47.062;15.446;2023-07-20T06:41:55;23.30;99.90
19279;DHT22;9773;47.062;15.446;2023-07-20T06:44:22;23.30;99.80
19279;DHT22;9773;47.062;15.446;2023-07-20T06:46:48;23.40;99.90
19279;DHT22;9773;47.062;15.446;2023-07-20T06:49:27;23.40;99.90
19279;DHT22;9773;47.062;15.446;2023-07-20T06:51:53;23.40;99.90
19279;DHT22;9773;47.062;15.446;2023-07-20T06:54:20;23.50;99.90
19279;DHT22;9773;47.062;15.446;2023-07-20T06:56:46;23.60;99.90
19279;DHT22;9773;47.062;15.446;2023-07-20T06:59:11;23.60;99.90
19279;DHT22;9773;47.062;15.446;2023-07-20T07:01:37;23.70;99.90
19279;DHT22;9773;47.062;15.446;2023-07-20T07:04:04;23.80;99.90
19279;DHT22;9773;47.062;15.446;2023-07-20T07:06:31;23.70;99.90
19279;DHT22;9773;47.062;15.446;2023-07-20T07:08:57;23.60;99.90
19279;DHT22;9773;47.062;15.446;2023-07-20T07:11:22;23.70;99.90
19279;DHT22;9773;47.062;15.446;2023-07-20T07:13:48;23.80;99.90
19279;DHT22;9773;47.062;15.446;2023-07-20T07:16:17;23.80;99.90
19279;DHT22;9773;47.062;15.446;2023-07-20T07:18:49;24.00;99.90
19279;DHT22;9773;47.062;15.446;2023-07-20T07:21:15;23.90;99.90
19279;DHT22;9773;47.062;15.446;2023-07-20T07:23:41;23.90;99.90
19279;DHT22;9773;47.062;15.446;2023-07-20T07:26:07;23.90;99.90
19279;DHT22;9773;47.062;15.446;2023-07-20T07:28:33;23.80;99.90
19279;DHT22;9773;47.062;15.446;2023-07-20T07:30:59;23.80;99.90
19279;DHT22;9773;47.062;15.446;2023-07-20T07:33:24;23.80;99.90
19279;DHT22;9773;47.062;15.446;2023-07-20T07:35:53;23.80;99.90
19279;DHT22;9773;47.062;15.446;2023-07-20T07:38:19;23.80;99.90
19279;DHT22;9773;47.062;15.446;2023-07-20T07:40:45;23.90;99.90
19279;DHT22;9773;47.062;15.446;2023-07-20T07:43:11;23.90;99.90
19279;DHT22;9773;47.062;15.446;2023-07-20T07:45:39;23.80;99.90
19279;DHT22;9773;47.062;15.446;2023-07-20T07:48:06;23.70;99.90
19279;DHT22;9773;47.062;15.446;2023-07-20T07:50:32;23.70;99.90
19279;DHT22;9773;47.062;15.446;2023-07-20T07:52:58;23.60;99.90
19279;DHT22;9773;47.062;15.446;2023-07-20T07:55:25;23.70;99.90
19279;DHT22;9773;47.062;15.446;2023-07-20T07:57:52;23.80;99.90
19279;DHT22;9773;47.062;15.446;2023-07-20T08:00:18;24.00;99.90
19279;DHT22;9773;47.062;15.446;2023-07-20T08:02:45;24.20;99.90
19279;DHT22;9773;47.062;15.446;2023-07-20T08:05:12;24.20;99.90
19279;DHT22;9773;47.062;15.446;2023-07-20T08:07:38;24.10;99.90
19279;DHT22;9773;47.062;15.446;2023-07-20T08:10:04;24.20;99.90
19279;DHT22;9773;47.062;15.446;2023-07-20T08:12:30;24.30;99.90
19279;DHT22;9773;47.062;15.446;2023-07-20T08:14:56;24.50;99.90
19279;DHT22;9773;47.062;15.446;2023-07-20T08:17:22;24.60;99.90
19279;DHT22;9773;47.062;15.446;2023-07-20T08:19:48;24.60;99.40
19279;DHT22;9773;47.062;15.446;2023-07-20T08:22:14;24.60;99.40
19279;DHT22;9773;47.062;15.446;2023-07-20T08:24:40;24.60;99.10
19279;DHT22;9773;47.062;15.446;2023-07-20T08:27:06;24.80;98.90
19279;DHT22;9773;47.062;15.446;2023-07-20T08:29:32;24.90;99.10
19279;DHT22;9773;47.062;15.446;2023-07-20T08:31:58;25.00;98.40
19279;DHT22;9773;47.062;15.446;2023-07-20T08:34:23;25.20;98.30
19279;DHT22;9773;47.062;15.446;2023-07-20T08:36:49;25.20;97.50
19279;DHT22;9773;47.062;15.446;2023-07-20T08:39:15;25.20;97.00
19279;DHT22;9773;47.062;15.446;2023-07-20T08:41:43;25.40;97.40
19279;DHT22;9773;47.062;15.446;2023-07-20T08:44:09;25.50;96.70
19279;DHT22;9773;47.062;15.446;2023-07-20T08:46:37;25.50;95.80
19279;DHT22;9773;47.062;15.446;2023-07-20T08:49:04;25.60;95.80
19279;DHT22;9773;47.062;15.446;2023-07-20T08:51:30;25.60;94.50
19279;DHT22;9773;47.062;15.446;2023-07-20T08:53:57;25.60;94.70
19279;DHT22;9773;47.062;15.446;2023-07-20T08:56:25;25.70;94.40
19279;DHT22;9773;47.062;15.446;2023-07-20T08:58:55;25.70;94.30
19279;DHT22;9773;47.062;15.446;2023-07-20T09:01:22;25.80;94.20
19279;DHT22;9773;47.062;15.446;2023-07-20T09:03:48;25.80;94.30
19279;DHT22;9773;47.062;15.446;2023-07-20T09:06:15;25.80;94.30
19279;DHT22;9773;47.062;15.446;2023-07-20T09:08:41;25.90;94.40
19279;DHT22;9773;47.062;15.446;2023-07-20T09:11:09;25.90;95.10
19279;DHT22;9773;47.062;15.446;2023-07-20T09:13:35;26.00;96.60
19279;DHT22;9773;47.062;15.446;2023-07-20T09:16:01;26.20;97.10
19279;DHT22;9773;47.062;15.446;2023-07-20T09:18:31;26.30;98.00
19279;DHT22;9773;47.062;15.446;2023-07-20T09:21:04;26.40;98.20
19279;DHT22;9773;47.062;15.446;2023-07-20T09:23:38;26.50;98.50
19279;DHT22;9773;47.062;15.446;2023-07-20T09:26:10;26.60;97.70
19279;DHT22;9773;47.062;15.446;2023-07-20T09:28:49;26.60;97.10
19279;DHT22;9773;47.062;15.446;2023-07-20T09:31:22;26.60;97.50
19279;DHT22;9773;47.062;15.446;2023-07-20T09:33:49;26.50;97.30
19279;DHT22;9773;47.062;15.446;2023-07-20T09:36:15;26.60;97.30
19279;DHT22;9773;47.062;15.446;2023-07-20T09:38:44;26.60;97.10
19279;DHT22;9773;47.062;15.446;2023-07-20T09:41:15;26.70;97.40
19279;DHT22;9773;47.062;15.446;2023-07-20T09:43:45;26.80;96.70
19279;DHT22;9773;47.062;15.446;2023-07-20T09:46:15;26.80;96.80
19279;DHT22;9773;47.062;15.446;2023-07-20T09:48:52;26.70;96.90
19279;DHT22;9773;47.062;15.446;2023-07-20T09:51:22;26.80;97.50
19279;DHT22;9773;47.062;15.446;2023-07-20T09:53:55;26.80;97.40
19279;DHT22;9773;47.062;15.446;2023-07-20T09:56:22;26.70;96.80
19279;DHT22;9773;47.062;15.446;2023-07-20T09:58:49;26.80;96.70
19279;DHT22;9773;47.062;15.446;2023-07-20T10:01:20;27.10;97.30
19279;DHT22;9773;47.062;15.446;2023-07-20T10:03:47;27.40;97.50
19279;DHT22;9773;47.062;15.446;2023-07-20T10:06:20;27.50;96.90
19279;DHT22;9773;47.062;15.446;2023-07-20T10:08:52;27.80;97.00
19279;DHT22;9773;47.062;15.446;2023-07-20T10:11:19;28.00;96.90
19279;DHT22;9773;47.062;15.446;2023-07-20T10:13:51;28.10;96.70
19279;DHT22;9773;47.062;15.446;2023-07-20T10:16:23;28.20;97.50
19279;DHT22;9773;47.062;15.446;2023-07-20T10:19:07;28.30;98.80
19279;DHT22;9773;47.062;15.446;2023-07-20T10:21:40;28.40;98.40
19279;DHT22;9773;47.062;15.446;2023-07-20T10:24:08;28.50;98.20
19279;DHT22;9773;47.062;15.446;2023-07-20T10:26:35;28.50;97.70
19279;DHT22;9773;47.062;15.446;2023-07-20T10:29:01;28.50;97.40
19279;DHT22;9773;47.062;15.446;2023-07-20T10:31:28;28.20;97.70
19279;DHT22;9773;47.062;15.446;2023-07-20T10:33:57;27.90;97.10
19279;DHT22;9773;47.062;15.446;2023-07-20T10:36:27;27.70;96.90
19279;DHT22;9773;47.062;15.446;2023-07-20T10:38:57;27.50;97.00
19279;DHT22;9773;47.062;15.446;2023-07-20T10:41:39;27.70;97.70
19279;DHT22;9773;47.062;15.446;2023-07-20T10:44:07;27.70;97.60
19279;DHT22;9773;47.062;15.446;2023-07-20T10:46:43;27.80;97.40
19279;DHT22;9773;47.062;15.446;2023-07-20T10:49:13;27.90;97.20
19279;DHT22;9773;47.062;15.446;2023-07-20T10:51:45;27.90;97.00
19279;DHT22;9773;47.062;15.446;2023-07-20T10:56:45;27.80;96.00
19279;DHT22;9773;47.062;15.446;2023-07-20T10:59:20;27.50;96.80
19279;DHT22;9773;47.062;15.446;2023-07-20T11:02:09;27.40;97.10
19279;DHT22;9773;47.062;15.446;2023-07-20T11:04:42;27.40;97.30
19279;DHT22;9773;47.062;15.446;2023-07-20T11:07:09;27.40;96.90
19279;DHT22;9773;47.062;15.446;2023-07-20T11:09:36;27.70;95.60
19279;DHT22;9773;47.062;15.446;2023-07-20T11:12:12;27.90;96.50
19279;DHT22;9773;47.062;15.446;2023-07-20T11:14:56;28.20;95.70
19279;DHT22;9773;47.062;15.446;2023-07-20T11:17:31;28.60;95.10
19279;DHT22;9773;47.062;15.446;2023-07-20T11:19:58;28.90;94.10
19279;DHT22;9773;47.062;15.446;2023-07-20T11:22:24;28.70;92.60
19279;DHT22;9773;47.062;15.446;2023-07-20T11:24:49;28.70;93.00
19279;DHT22;9773;47.062;15.446;2023-07-20T11:27:16;28.70;92.80
19279;DHT22;9773;47.062;15.446;2023-07-20T11:29:45;28.60;92.90
19279;DHT22;9773;47.062;15.446;2023-07-20T11:32:11;28.50;93.90
19279;DHT22;9773;47.062;15.446;2023-07-20T11:34:36;28.60;93.90
19279;DHT22;9773;47.062;15.446;2023-07-20T11:37:02;28.30;93.90
19279;DHT22;9773;47.062;15.446;2023-07-20T11:39:29;28.40;94.20
19279;DHT22;9773;47.062;15.446;2023-07-20T11:41:56;28.50;94.40
19279;DHT22;9773;47.062;15.446;2023-07-20T11:44:24;28.20;94.00
19279;DHT22;9773;47.062;15.446;2023-07-20T11:47:11;27.90;92.70
19279;DHT22;9773;47.062;15.446;2023-07-20T11:49:40;27.80;92.40
19279;DHT22;9773;47.062;15.446;2023-07-20T11:52:08;27.60;92.30
19279;DHT22;9773;47.062;15.446;2023-07-20T11:54:35;27.80;94.10
19279;DHT22;9773;47.062;15.446;2023-07-20T11:57:05;28.00;92.10
19279;DHT22;9773;47.062;15.446;2023-07-20T11:59:31;28.10;92.40
19279;DHT22;9773;47.062;15.446;2023-07-20T12:02:03;28.10;92.60
19279;DHT22;9773;47.062;15.446;2023-07-20T12:04:32;28.00;93.20
19279;DHT22;9773;47.062;15.446;2023-07-20T12:06:59;28.20;94.10
19279;DHT22;9773;47.062;15.446;2023-07-20T12:09:25;28.60;93.20
19279;DHT22;9773;47.062;15.446;2023-07-20T12:11:50;28.70;92.70
19279;DHT22;9773;47.062;15.446;2023-07-20T12:14:16;28.50;92.60
19279;DHT22;9773;47.062;15.446;2023-07-20T12:16:43;28.40;92.20
19279;DHT22;9773;47.062;15.446;2023-07-20T12:19:13;28.50;93.60
19279;DHT22;9773;47.062;15.446;2023-07-20T12:21:40;28.40;94.50
19279;DHT22;9773;47.062;15.446;2023-07-20T12:24:08;28.10;93.00
19279;DHT22;9773;47.062;15.446;2023-07-20T12:26:37;27.70;93.60
19279;DHT22;9773;47.062;15.446;2023-07-20T12:29:03;27.30;94.10
19279;DHT22;9773;47.062;15.446;2023-07-20T12:31:29;26.90;94.40
19279;DHT22;9773;47.062;15.446;2023-07-20T12:33:57;26.50;95.20
19279;DHT22;9773;47.062;15.446;2023-07-20T12:36:23;25.90;95.70
19279;DHT22;9773;47.062;15.446;2023-07-20T12:38:49;25.50;96.50
19279;DHT22;9773;47.062;15.446;2023-07-20T12:41:15;25.40;97.20
19279;DHT22;9773;47.062;15.446;2023-07-20T12:43:44;25.30;97.30
19279;DHT22;9773;47.062;15.446;2023-07-20T12:46:11;25.20;97.60
19279;DHT22;9773;47.062;15.446;2023-07-20T12:48:40;25.00;97.50
19279;DHT22;9773;47.062;15.446;2023-07-20T12:51:08;24.70;98.00
19279;DHT22;9773;47.062;15.446;2023-07-20T12:53:35;24.50;98.50
19279;DHT22;9773;47.062;15.446;2023-07-20T12:56:01;24.50;99.00
19279;DHT22;9773;47.062;15.446;2023-07-20T12:58:27;24.50;99.20
19279;DHT22;9773;47.062;15.446;2023-07-20T13:00:53;24.40;99.90
19279;DHT22;9773;47.062;15.446;2023-07-20T13:03:19;24.20;99.90
19279;DHT22;9773;47.062;15.446;2023-07-20T13:05:46;24.00;99.90
19279;DHT22;9773;47.062;15.446;2023-07-20T13:08:11;23.80;99.90
19279;DHT22;9773;47.062;15.446;2023-07-20T13:10:38;23.90;99.90
19279;DHT22;9773;47.062;15.446;2023-07-20T13:13:06;24.00;99.90
19279;DHT22;9773;47.062;15.446;2023-07-20T13:15:41;24.00;99.90
19279;DHT22;9773;47.062;15.446;2023-07-20T13:18:07;24.00;99.90
19279;DHT22;9773;47.062;15.446;2023-07-20T13:20:32;24.00;99.90
19279;DHT22;9773;47.062;15.446;2023-07-20T13:22:58;23.90;99.90
19279;DHT22;9773;47.062;15.446;2023-07-20T13:25:25;23.90;99.90
19279;DHT22;9773;47.062;15.446;2023-07-20T13:27:51;23.80;99.90
19279;DHT22;9773;47.062;15.446;2023-07-20T13:30:16;23.80;99.90
19279;DHT22;9773;47.062;15.446;2023-07-20T13:32:45;23.80;99.90
19279;DHT22;9773;47.062;15.446;2023-07-20T13:35:14;23.80;99.90
19279;DHT22;9773;47.062;15.446;2023-07-20T13:37:41;23.90;99.90
19279;DHT22;9773;47.062;15.446;2023-07-20T13:40:07;24.10;99.90
19279;DHT22;9773;47.062;15.446;2023-07-20T13:42:39;24.10;99.90
19279;DHT22;9773;47.062;15.446;2023-07-20T13:45:06;24.20;99.90
19279;DHT22;9773;47.062;15.446;2023-07-20T13:47:32;24.20;99.90
19279;DHT22;9773;47.062;15.446;2023-07-20T13:49:58;24.40;99.90
19279;DHT22;9773;47.062;15.446;2023-07-20T13:52:24;24.60;99.90
19279;DHT22;9773;47.062;15.446;2023-07-20T13:54:49;24.50;99.90
19279;DHT22;9773;47.062;15.446;2023-07-20T13:57:15;24.60;99.90
19279;DHT22;9773;47.062;15.446;2023-07-20T13:59:41;24.50;99.90
19279;DHT22;9773;47.062;15.446;2023-07-20T14:02:07;24.50;99.90
19279;DHT22;9773;47.062;15.446;2023-07-20T14:04:33;24.60;99.90
19279;DHT22;9773;47.062;15.446;2023-07-20T14:06:58;24.60;99.90
19279;DHT22;9773;47.062;15.446;2023-07-20T14:09:24;24.70;99.90
19279;DHT22;9773;47.062;15.446;2023-07-20T14:11:50;24.70;99.90
19279;DHT22;9773;47.062;15.446;2023-07-20T14:14:15;24.70;99.90
19279;DHT22;9773;47.062;15.446;2023-07-20T14:16:41;24.80;99.90
19279;DHT22;9773;47.062;15.446;2023-07-20T14:19:07;24.70;99.90
19279;DHT22;9773;47.062;15.446;2023-07-20T14:21:33;24.80;99.90
19279;DHT22;9773;47.062;15.446;2023-07-20T14:23:58;25.00;99.90
19279;DHT22;9773;47.062;15.446;2023-07-20T14:26:24;25.20;99.90
19279;DHT22;9773;47.062;15.446;2023-07-20T14:28:50;25.60;99.90
19279;DHT22;9773;47.062;15.446;2023-07-20T14:31:16;25.80;99.90
19279;DHT22;9773;47.062;15.446;2023-07-20T14:33:42;26.00;99.90
19279;DHT22;9773;47.062;15.446;2023-07-20T14:36:08;26.00;99.90
19279;DHT22;9773;47.062;15.446;2023-07-20T14:38:34;26.00;99.90
19279;DHT22;9773;47.062;15.446;2023-07-20T14:41:00;26.00;99.90
19279;DHT22;9773;47.062;15.446;2023-07-20T14:43:26;25.80;99.90
19279;DHT22;9773;47.062;15.446;2023-07-20T14:45:52;25.70;99.90
19279;DHT22;9773;47.062;15.446;2023-07-20T14:48:17;25.60;99.90
19279;DHT22;9773;47.062;15.446;2023-07-20T14:50:43;25.60;99.90
19279;DHT22;9773;47.062;15.446;2023-07-20T14:53:13;25.60;99.90
19279;DHT22;9773;47.062;15.446;2023-07-20T14:55:39;25.70;99.90
19279;DHT22;9773;47.062;15.446;2023-07-20T14:58:05;25.70;99.90
19279;DHT22;9773;47.062;15.446;2023-07-20T15:00:31;25.70;99.90
19279;DHT22;9773;47.062;15.446;2023-07-20T15:02:57;25.80;99.90
19279;DHT22;9773;47.062;15.446;2023-07-20T15:05:23;25.90;99.90
19279;DHT22;9773;47.062;15.446;2023-07-20T15:07:49;25.90;98.60
19279;DHT22;9773;47.062;15.446;2023-07-20T15:10:15;25.90;99.00
19279;DHT22;9773;47.062;15.446;2023-07-20T15:12:41;25.90;99.00
19279;DHT22;9773;47.062;15.446;2023-07-20T15:15:09;25.80;99.20
19279;DHT22;9773;47.062;15.446;2023-07-20T15:17:36;25.90;99.40
19279;DHT22;9773;47.062;15.446;2023-07-20T15:20:03;26.10;98.60
19279;DHT22;9773;47.062;15.446;2023-07-20T15:22:33;26.20;99.00
19279;DHT22;9773;47.062;15.446;2023-07-20T15:24:59;26.30;99.30
19279;DHT22;9773;47.062;15.446;2023-07-20T15:27:26;26.30;98.40
19279;DHT22;9773;47.062;15.446;2023-07-20T15:29:52;26.20;98.00
19279;DHT22;9773;47.062;15.446;2023-07-20T15:32:20;26.30;97.80
19279;DHT22;9773;47.062;15.446;2023-07-20T15:34:46;26.30;98.00
19279;DHT22;9773;47.062;15.446;2023-07-20T15:37:13;26.30;98.30
19279;DHT22;9773;47.062;15.446;2023-07-20T15:39:39;26.30;98.40
19279;DHT22;9773;47.062;15.446;2023-07-20T15:42:05;26.10;98.90
19279;DHT22;9773;47.062;15.446;2023-07-20T15:44:32;26.10;99.90